createdAt,value
2018-10-17T00:01:17.640Z,70.52
2018-10-17T00:03:45.922Z,69.23
2018-10-17T00:06:14.231Z,70.68
2018-10-17T00:08:42.623Z,69.59
2018-10-17T00:11:11.086Z,69.75
2018-10-17T00:13:39.379Z,70.50
2018-10-17T00:16:07.719Z,70.33
2018-10-17T00:18:36.256Z,70.82
2018-10-17T00:21:05.294Z,70.61
2018-10-17T00:23:33.995Z,71.71
2018-10-17T00:26:02.592Z,71.65
2018-10-17T00:28:30.927Z,71.16
2018-10-17T00:30:59.304Z,70.49
2018-10-17T00:33:27.601Z,70.49
2018-10-17T00:35:55.912Z,71.19
2018-10-17T00:38:24.258Z,70.24
2018-10-17T00:40:52.617Z,70.66
2018-10-17T00:43:20.915Z,70.18
2018-10-17T00:45:49.251Z,70.67
2018-10-17T00:48:17.612Z,70.32
2018-10-17T00:50:45.947Z,71.29
2018-10-17T00:53:14.441Z,70.98
2018-10-17T00:55:42.746Z,70.47
2018-10-17T00:58:11.222Z,70.17
2018-10-17T01:00:39.603Z,70.46
2018-10-17T01:03:07.918Z,70.80
2018-10-17T01:05:36.255Z,71.13
2018-10-17T01:08:04.754Z,71.06
2018-10-17T01:10:33.548Z,71.09
2018-10-17T01:13:02.226Z,71.74
2018-10-17T01:15:30.564Z,71.33
2018-10-17T01:17:58.886Z,71.59
2018-10-17T01:20:27.235Z,71.45
2018-10-17T01:22:55.555Z,71.46
2018-10-17T01:25:23.906Z,71.31
2018-10-17T01:27:52.250Z,71.19
2018-10-17T01:30:20.569Z,71.94
2018-10-17T01:32:48.890Z,71.31
2018-10-17T01:35:17.251Z,71.05
2018-10-17T01:37:45.555Z,71.64
2018-10-17T01:40:13.876Z,71.74
2018-10-17T01:42:42.217Z,71.95
2018-10-17T01:45:10.701Z,72.91
2018-10-17T01:47:39.034Z,72.50
2018-10-17T01:50:07.988Z,72.47
2018-10-17T01:52:36.303Z,72.34
2018-10-17T01:55:05.305Z,72.30
2018-10-17T01:57:33.574Z,72.29
2018-10-17T02:00:01.924Z,72.30
2018-10-17T02:02:30.239Z,72.93
2018-10-17T02:04:58.563Z,72.30
2018-10-17T02:07:26.882Z,72.14
2018-10-17T02:09:55.194Z,72.31
2018-10-17T02:12:23.511Z,72.82
2018-10-17T02:14:51.891Z,72.50
2018-10-17T02:17:20.209Z,72.70
2018-10-17T02:19:48.539Z,73.06
2018-10-17T02:22:16.858Z,72.77
2018-10-17T02:24:45.190Z,72.63
2018-10-17T02:27:13.510Z,72.18
2018-10-17T02:29:41.833Z,73.80
2018-10-17T02:32:10.135Z,73.03
2018-10-17T02:34:43.794Z,73.50
2018-10-17T02:37:12.181Z,72.94
2018-10-17T02:39:40.452Z,73.54
2018-10-17T02:42:08.784Z,74.36
2018-10-17T02:44:37.103Z,74.33
2018-10-17T02:47:05.639Z,73.38
2018-10-17T02:49:33.908Z,73.93
2018-10-17T02:52:02.236Z,75.21
2018-10-17T02:54:30.561Z,75.41
2018-10-17T02:56:58.884Z,74.27
2018-10-17T02:59:27.220Z,74.37
2018-10-17T03:01:55.547Z,75.01
2018-10-17T03:04:23.884Z,74.57
2018-10-17T03:06:52.256Z,74.57
2018-10-17T03:09:20.593Z,74.82
2018-10-17T03:11:48.920Z,74.80
2018-10-17T03:14:17.500Z,74.15
2018-10-17T03:16:45.831Z,75.42
2018-10-17T03:19:14.277Z,75.38
2018-10-17T03:21:42.505Z,75.80
2018-10-17T03:24:10.842Z,75.39
2018-10-17T03:26:39.183Z,74.54
2018-10-17T03:29:07.638Z,74.02
2018-10-17T03:31:36.012Z,74.86
2018-10-17T03:34:04.240Z,74.20
2018-10-17T03:36:32.577Z,74.30
2018-10-17T03:39:01.571Z,73.89
2018-10-17T03:41:29.893Z,73.57
2018-10-17T03:43:58.228Z,73.63
2018-10-17T03:46:26.544Z,74.31
2018-10-17T03:48:54.916Z,74.81
2018-10-17T03:51:23.246Z,74.33
2018-10-17T03:53:51.577Z,73.52
2018-10-17T03:56:19.918Z,74.28
2018-10-17T03:58:48.219Z,73.83
2018-10-17T04:01:16.601Z,73.75
2018-10-17T04:03:44.890Z,73.70
2018-10-17T04:06:13.214Z,74.95
2018-10-17T04:08:41.543Z,74.95
2018-10-17T04:11:09.950Z,73.91
2018-10-17T04:13:38.268Z,74.83
2018-10-17T04:16:06.616Z,74.57
2018-10-17T04:18:34.951Z,74.98
2018-10-17T04:21:03.294Z,74.26
2018-10-17T04:23:31.608Z,74.22
2018-10-17T04:25:59.980Z,74.61
2018-10-17T04:28:28.287Z,74.93
2018-10-17T04:30:56.683Z,74.51
2018-10-17T04:33:24.975Z,74.47
2018-10-17T04:35:53.300Z,74.62
2018-10-17T04:38:21.614Z,75.37
2018-10-17T04:40:49.961Z,75.55
2018-10-17T04:43:18.423Z,75.56
2018-10-17T04:45:46.682Z,75.14
2018-10-17T04:48:15.013Z,75.08
2018-10-17T04:50:43.381Z,74.73
2018-10-17T04:53:11.725Z,75.14
2018-10-17T04:55:40.068Z,75.28
2018-10-17T04:58:08.409Z,75.92
2018-10-17T05:00:36.734Z,75.74
2018-10-17T05:03:05.506Z,76.43
2018-10-17T05:05:33.852Z,76.58
2018-10-17T05:08:02.228Z,76.39
2018-10-17T05:10:30.696Z,76.24
2018-10-17T05:12:59.061Z,77.33
2018-10-17T05:15:27.374Z,76.41
2018-10-17T05:17:55.695Z,77.42
2018-10-17T05:20:24.031Z,77.28
2018-10-17T05:22:52.419Z,76.87
2018-10-17T05:25:20.733Z,76.45
2018-10-17T05:27:49.128Z,77.27
2018-10-17T05:30:17.481Z,77.56
2018-10-17T05:32:45.803Z,77.38
2018-10-17T05:35:14.186Z,76.45
2018-10-17T05:37:42.527Z,76.94
2018-10-17T05:40:10.891Z,76.05
2018-10-17T05:42:39.233Z,76.84
2018-10-17T05:45:08.217Z,76.55
2018-10-17T05:47:36.569Z,75.88
2018-10-17T05:50:05.018Z,77.26
2018-10-17T05:52:33.357Z,76.86
2018-10-17T05:55:01.720Z,76.71
2018-10-17T05:57:30.064Z,76.79
2018-10-17T05:59:58.423Z,76.38
2018-10-17T06:02:29.171Z,77.31
2018-10-17T06:04:57.509Z,77.05
2018-10-17T06:07:25.861Z,77.14
2018-10-17T06:09:54.185Z,77.69
2018-10-17T06:12:22.514Z,78.64
2018-10-17T06:14:50.842Z,79.47
2018-10-17T06:17:19.274Z,78.09
2018-10-17T06:19:47.548Z,79.23
2018-10-17T06:22:15.872Z,78.63
2018-10-17T06:24:44.199Z,78.92
2018-10-17T06:27:12.734Z,77.79
2018-10-17T06:29:41.187Z,77.16
2018-10-17T06:32:09.539Z,77.20
2018-10-17T06:34:38.171Z,76.81
2018-10-17T06:37:06.796Z,77.29
2018-10-17T06:39:35.011Z,77.26
2018-10-17T06:42:03.508Z,77.41
2018-10-17T06:44:31.855Z,77.23
2018-10-17T06:47:00.228Z,77.06
2018-10-17T06:49:28.540Z,77.11
2018-10-17T06:51:56.873Z,77.28
2018-10-17T06:54:25.354Z,76.29
2018-10-17T06:56:53.614Z,76.68
2018-10-17T06:59:21.951Z,77.44
2018-10-17T07:01:50.344Z,76.22
2018-10-17T07:04:18.651Z,76.21
2018-10-17T07:06:46.980Z,76.06
2018-10-17T07:09:15.310Z,75.98
2018-10-17T07:11:43.657Z,75.87
2018-10-17T07:14:11.994Z,75.86
2018-10-17T07:16:40.320Z,75.90
2018-10-17T07:19:08.701Z,75.70
2018-10-17T07:21:37.030Z,75.75
2018-10-17T07:24:05.364Z,75.54
2018-10-17T07:26:33.687Z,75.53
2018-10-17T07:29:02.052Z,75.33
2018-10-17T07:31:30.409Z,75.41
2018-10-17T07:33:58.764Z,74.84
2018-10-17T07:36:27.100Z,74.64
2018-10-17T07:38:55.423Z,74.00
2018-10-17T07:41:23.756Z,74.14
2018-10-17T07:43:52.076Z,73.46
2018-10-17T07:46:20.417Z,73.75
2018-10-17T07:48:48.761Z,72.79
2018-10-17T07:51:17.119Z,72.36
2018-10-17T07:53:45.471Z,72.00
2018-10-17T07:56:13.859Z,70.61
2018-10-17T07:58:42.240Z,69.39
2018-10-17T08:01:10.573Z,69.58
2018-10-17T08:03:38.896Z,68.85
2018-10-17T08:06:07.258Z,68.49
2018-10-17T08:08:35.599Z,67.99
2018-10-17T08:11:03.971Z,67.36
2018-10-17T08:13:32.312Z,66.61
2018-10-17T08:16:00.646Z,65.92
2018-10-17T08:18:29.039Z,66.26
2018-10-17T08:20:57.372Z,63.81
2018-10-17T08:23:25.693Z,64.10
2018-10-17T08:25:54.039Z,63.14
2018-10-17T08:28:22.382Z,62.31
2018-10-17T08:30:50.726Z,61.96
2018-10-17T08:33:19.045Z,62.04
2018-10-17T08:35:47.505Z,62.91
2018-10-17T08:38:15.728Z,61.42
2018-10-17T08:40:44.082Z,60.21
2018-10-17T08:43:12.426Z,60.05
2018-10-17T08:45:40.745Z,58.36
2018-10-17T08:48:09.080Z,58.87
2018-10-17T08:50:37.434Z,58.37
2018-10-17T08:53:05.767Z,57.34
2018-10-17T08:55:34.103Z,55.35
2018-10-17T08:58:02.814Z,57.47
2018-10-17T09:00:31.100Z,57.05
2018-10-17T09:02:59.455Z,56.01
2018-10-17T09:05:27.960Z,56.79
2018-10-17T09:07:56.352Z,55.05
2018-10-17T09:10:24.654Z,54.47
2018-10-17T09:12:52.973Z,52.22
2018-10-17T09:15:21.288Z,56.60
2018-10-17T09:17:49.712Z,54.98
2018-10-17T09:20:18.359Z,50.29
2018-10-17T09:22:46.379Z,54.01
2018-10-17T09:25:14.748Z,53.51
2018-10-17T09:27:43.064Z,55.04
2018-10-17T09:30:12.341Z,52.74
2018-10-17T09:32:40.777Z,51.95
2018-10-17T09:35:10.302Z,50.89
2018-10-17T09:37:38.608Z,48.48
2018-10-17T09:40:08.089Z,50.43
2018-10-17T09:42:36.387Z,49.27
2018-10-17T09:45:04.972Z,49.23
2018-10-17T09:47:33.315Z,49.88
2018-10-17T09:50:01.639Z,50.25
2018-10-17T09:52:29.973Z,50.23
2018-10-17T09:54:59.124Z,50.95
2018-10-17T09:57:27.453Z,50.25
2018-10-17T09:59:56.050Z,49.68
2018-10-17T10:02:24.495Z,48.44
2018-10-17T10:04:52.721Z,50.38
2018-10-17T10:07:21.031Z,49.63
2018-10-17T10:09:49.386Z,47.48
2018-10-17T10:12:17.804Z,48.59
2018-10-17T10:14:46.677Z,48.75
2018-10-17T10:17:15.201Z,48.37
2018-10-17T10:19:43.613Z,51.44
2018-10-17T10:22:12.045Z,47.06
2018-10-17T10:24:40.326Z,49.00
2018-10-17T10:27:08.725Z,47.17
2018-10-17T10:29:37.134Z,46.12
2018-10-17T10:32:05.475Z,45.87
2018-10-17T10:34:33.816Z,46.05
2018-10-17T10:37:02.179Z,44.94
2018-10-17T10:39:30.496Z,45.58
2018-10-17T10:41:58.888Z,46.91
2018-10-17T10:44:27.446Z,46.05
2018-10-17T10:46:55.817Z,46.39
2018-10-17T10:49:24.158Z,46.73
2018-10-17T10:53:16.920Z,46.54
2018-10-17T10:55:45.279Z,46.83
2018-10-17T10:58:13.632Z,47.32
2018-10-17T11:00:41.962Z,46.58
2018-10-17T11:03:10.340Z,47.22
2018-10-17T11:05:38.827Z,47.27
2018-10-17T11:08:07.240Z,47.34
2018-10-17T11:10:35.527Z,47.08
2018-10-17T11:13:03.855Z,47.57
2018-10-17T11:15:32.187Z,47.20
2018-10-17T11:18:00.507Z,46.84
2018-10-17T11:20:28.819Z,47.20
2018-10-17T11:22:57.258Z,48.05
2018-10-17T11:25:25.619Z,47.94
2018-10-17T11:27:53.953Z,48.04
2018-10-17T11:30:22.315Z,48.51
2018-10-17T11:32:50.665Z,47.92
2018-10-17T11:35:19.089Z,47.68
2018-10-17T11:37:47.405Z,47.63
2018-10-17T11:40:15.837Z,48.16
2018-10-17T11:42:44.153Z,48.59
2018-10-17T11:45:12.542Z,48.95
2018-10-17T11:47:40.893Z,48.07
2018-10-17T11:50:10.096Z,48.02
2018-10-17T11:52:38.759Z,48.50
2018-10-17T11:55:07.254Z,47.86
2018-10-17T11:57:35.697Z,48.75
2018-10-17T12:00:04.489Z,48.12
2018-10-17T12:02:32.843Z,48.50
2018-10-17T12:05:01.385Z,48.34
2018-10-17T12:07:29.537Z,48.95
2018-10-17T12:09:57.869Z,48.39
2018-10-17T12:12:26.300Z,48.80
2018-10-17T12:14:54.601Z,49.05
2018-10-17T12:17:22.988Z,48.62
2018-10-17T12:19:51.449Z,48.88
2018-10-17T12:22:19.729Z,49.16
2018-10-17T12:24:48.102Z,48.67
2018-10-17T12:27:16.508Z,48.40
2018-10-17T12:29:44.855Z,48.98
2018-10-17T12:32:13.210Z,48.54
2018-10-17T12:34:41.544Z,49.24
2018-10-17T12:37:09.911Z,49.33
2018-10-17T12:39:38.388Z,49.08
2018-10-17T12:42:06.693Z,48.79
2018-10-17T12:44:35.033Z,49.38
2018-10-17T12:47:03.426Z,48.91
2018-10-17T12:49:31.808Z,49.11
2018-10-17T12:52:00.204Z,49.65
2018-10-17T12:54:28.524Z,48.72
2018-10-17T12:56:56.867Z,49.11
2018-10-17T12:59:25.184Z,49.01
2018-10-17T13:01:53.525Z,48.71
2018-10-17T13:04:21.870Z,49.39
2018-10-17T13:06:50.207Z,49.21
2018-10-17T13:09:18.559Z,48.74
2018-10-17T13:11:46.869Z,48.55
2018-10-17T13:14:15.204Z,48.55
2018-10-17T13:16:43.525Z,48.71
2018-10-17T13:19:11.911Z,48.47
2018-10-17T13:21:40.289Z,48.48
2018-10-17T13:24:08.611Z,48.70
2018-10-17T13:26:36.940Z,48.35
2018-10-17T13:29:06.137Z,48.97
2018-10-17T13:31:34.501Z,48.87
2018-10-17T13:34:02.879Z,48.64
2018-10-17T13:36:31.205Z,48.32
2018-10-17T13:38:59.536Z,48.31
2018-10-17T13:41:27.884Z,48.47
2018-10-17T13:43:56.208Z,48.94
2018-10-17T13:46:24.555Z,49.12
2018-10-17T13:48:52.941Z,49.14
2018-10-17T13:51:21.267Z,49.15
2018-10-17T13:53:49.604Z,49.18
2018-10-17T13:56:17.995Z,49.33
2018-10-17T13:58:46.337Z,49.10
2018-10-17T14:01:14.686Z,48.39
2018-10-17T14:03:43.004Z,48.99
2018-10-17T14:06:11.410Z,49.44
2018-10-17T14:08:39.725Z,48.89
2018-10-17T14:11:08.813Z,48.85
2018-10-17T14:13:37.167Z,49.18
2018-10-17T14:16:05.929Z,49.38
2018-10-17T14:18:34.279Z,49.64
2018-10-17T14:21:02.651Z,49.49
2018-10-17T14:23:31.130Z,49.76
2018-10-17T14:25:59.370Z,49.70
2018-10-17T14:28:27.706Z,49.82
2018-10-17T14:30:56.026Z,50.03
2018-10-17T14:33:24.580Z,50.43
2018-10-17T14:35:52.949Z,50.53
2018-10-17T14:38:21.495Z,50.18
2018-10-17T14:40:50.592Z,50.56
2018-10-17T14:43:18.972Z,50.17
2018-10-17T14:45:47.329Z,50.18
2018-10-17T14:48:15.747Z,50.71
2018-10-17T14:50:44.039Z,50.23
2018-10-17T14:53:12.507Z,50.95
2018-10-17T14:55:40.777Z,51.47
2018-10-17T14:58:09.119Z,50.48
2018-10-17T15:00:38.273Z,51.04
2018-10-17T15:03:06.675Z,50.79
2018-10-17T15:05:35.011Z,51.28
2018-10-17T15:08:03.380Z,51.56
2018-10-17T15:10:32.034Z,51.19
2018-10-17T15:13:00.317Z,50.97
2018-10-17T15:15:28.657Z,51.68
2018-10-17T15:17:57.041Z,51.62
2018-10-17T15:20:25.353Z,51.46
2018-10-17T15:22:53.691Z,52.29
2018-10-17T15:25:22.028Z,51.75
2018-10-17T15:27:50.382Z,52.42
2018-10-17T15:30:18.865Z,52.66
2018-10-17T15:32:47.102Z,52.44
2018-10-17T15:35:15.431Z,52.92
2018-10-17T15:37:43.780Z,53.17
2018-10-17T15:40:12.114Z,52.92
2018-10-17T15:42:40.457Z,53.18
2018-10-17T15:45:08.860Z,53.36
2018-10-17T15:47:37.152Z,53.60
2018-10-17T15:50:05.674Z,53.59
2018-10-17T15:52:34.008Z,53.38
2018-10-17T15:55:02.354Z,54.13
2018-10-17T15:57:30.743Z,53.95
2018-10-17T15:59:59.167Z,54.62
2018-10-17T16:02:27.785Z,54.80
2018-10-17T16:04:56.142Z,55.00
2018-10-17T16:07:24.484Z,55.20
2018-10-17T16:09:53.667Z,55.41
2018-10-17T16:12:22.399Z,56.15
2018-10-17T16:14:50.746Z,55.66
2018-10-17T16:17:19.494Z,56.22
2018-10-17T16:19:47.825Z,55.55
2018-10-17T16:22:16.162Z,55.69
2018-10-17T16:24:44.561Z,56.12
2018-10-17T16:27:12.874Z,56.13
2018-10-17T16:29:41.222Z,56.82
2018-10-17T16:32:09.653Z,56.83
2018-10-17T16:34:37.957Z,56.92
2018-10-17T16:37:06.301Z,57.21
2018-10-17T16:39:34.656Z,57.49
2018-10-17T16:42:03.043Z,57.23
2018-10-17T16:44:31.396Z,57.31
2018-10-17T16:47:00.434Z,58.07
2018-10-17T16:49:28.891Z,58.56
2018-10-17T16:51:57.329Z,58.83
2018-10-17T16:54:25.814Z,58.29
2018-10-17T16:56:54.138Z,58.73
2018-10-17T16:59:22.467Z,59.15
2018-10-17T17:01:50.892Z,59.28
2018-10-17T17:04:19.350Z,59.45
2018-10-17T17:06:47.815Z,61.29
2018-10-17T17:09:16.254Z,60.61
2018-10-17T17:11:44.504Z,60.20
2018-10-17T17:14:12.840Z,60.22
2018-10-17T17:16:41.163Z,60.42
2018-10-17T17:19:09.504Z,60.07
2018-10-17T17:21:37.843Z,60.76
2018-10-17T17:24:06.218Z,60.97
2018-10-17T17:26:34.666Z,61.10
2018-10-17T17:29:03.003Z,61.26
2018-10-17T17:31:31.340Z,62.03
2018-10-17T17:33:59.677Z,62.13
2018-10-17T17:36:28.143Z,62.09
2018-10-17T17:38:56.418Z,61.55
2018-10-17T17:41:25.130Z,62.20
2018-10-17T17:43:53.631Z,62.39
2018-10-17T17:46:22.029Z,62.24
2018-10-17T17:48:50.795Z,62.92
2018-10-17T17:51:19.270Z,62.95
2018-10-17T17:53:47.597Z,62.96
2018-10-17T17:56:16.003Z,63.49
2018-10-17T17:58:44.357Z,63.50
2018-10-17T18:01:12.699Z,64.00
2018-10-17T18:03:41.040Z,63.50
2018-10-17T18:06:09.486Z,64.45
2018-10-17T18:08:37.826Z,64.41
2018-10-17T18:11:18.572Z,64.11
2018-10-17T18:13:46.928Z,63.79
2018-10-17T18:16:15.476Z,63.91
2018-10-17T18:18:44.270Z,63.65
2018-10-17T18:21:12.649Z,64.07
2018-10-17T18:23:41.417Z,63.96
2018-10-17T18:26:10.104Z,63.74
2018-10-17T18:28:38.537Z,64.87
2018-10-17T18:31:06.840Z,64.32
2018-10-17T18:33:35.173Z,63.89
2018-10-17T18:36:03.698Z,63.99
2018-10-17T18:38:32.055Z,64.30
2018-10-17T18:41:00.438Z,64.60
2018-10-17T18:43:28.772Z,65.04
2018-10-17T18:45:57.430Z,64.48
2018-10-17T18:48:26.039Z,64.20
2018-10-17T18:50:54.461Z,65.73
2018-10-17T18:53:22.890Z,65.54
2018-10-17T18:55:51.822Z,66.99
2018-10-17T18:58:20.069Z,65.38
2018-10-17T19:00:48.475Z,65.00
2018-10-17T19:03:16.869Z,65.52
2018-10-17T19:05:45.771Z,66.57
2018-10-17T19:08:14.286Z,66.19
2018-10-17T19:10:42.788Z,67.03
2018-10-17T19:13:11.377Z,67.13
2018-10-17T19:15:39.768Z,67.31
2018-10-17T19:18:08.670Z,67.58
2018-10-17T19:20:37.021Z,67.14
2018-10-17T19:23:05.938Z,67.40
2018-10-17T19:25:34.309Z,68.02
2018-10-17T19:28:02.664Z,67.92
2018-10-17T19:30:31.590Z,68.06
2018-10-17T19:32:59.960Z,68.19
2018-10-17T19:35:28.380Z,67.50
2018-10-17T19:37:56.725Z,67.47
2018-10-17T19:40:25.103Z,67.20
2018-10-17T19:42:53.471Z,67.40
2018-10-17T19:45:21.808Z,67.55
2018-10-17T19:47:50.164Z,67.74
2018-10-17T19:50:19.138Z,68.26
2018-10-17T19:52:47.483Z,68.19
2018-10-17T19:55:16.720Z,67.72
2018-10-17T19:57:45.091Z,68.33
2018-10-17T20:00:14.460Z,68.43
2018-10-17T20:02:43.465Z,68.86
2018-10-17T20:05:12.244Z,70.90
2018-10-17T20:07:41.194Z,70.09
2018-10-17T20:10:09.737Z,69.75
2018-10-17T20:12:38.129Z,69.25
2018-10-17T20:15:07.017Z,69.11
2018-10-17T20:17:35.530Z,69.24
2018-10-17T20:20:04.139Z,69.21
2018-10-17T20:22:32.497Z,69.11
2018-10-17T20:25:00.904Z,69.38
2018-10-17T20:27:29.363Z,68.98
2018-10-17T20:29:57.709Z,69.96
2018-10-17T20:32:26.132Z,69.50
2018-10-17T20:34:54.563Z,69.43
2018-10-17T20:37:22.927Z,70.46
2018-10-17T20:39:51.294Z,70.07
2018-10-17T20:42:19.687Z,70.54
2018-10-17T20:44:48.037Z,70.62
2018-10-17T20:47:16.368Z,69.89
2018-10-17T20:49:44.696Z,70.35
2018-10-17T20:52:13.698Z,71.63
2018-10-17T20:54:42.078Z,71.08
2018-10-17T20:57:10.425Z,70.99
2018-10-17T20:59:38.744Z,71.36
2018-10-17T21:02:07.122Z,70.78
2018-10-17T21:04:35.461Z,71.57
2018-10-17T21:07:03.805Z,70.59
2018-10-17T21:09:32.159Z,71.07
2018-10-17T21:12:00.515Z,70.73
2018-10-17T21:14:29.034Z,70.67
2018-10-17T21:16:57.391Z,70.48
2018-10-17T21:19:25.732Z,71.91
2018-10-17T21:21:54.091Z,70.74
2018-10-17T21:24:22.442Z,70.64
2018-10-17T21:26:50.827Z,70.96
2018-10-17T21:29:19.183Z,70.51
2018-10-17T21:31:47.544Z,70.75
2018-10-17T21:34:15.869Z,71.54
2018-10-17T21:36:44.223Z,71.02
2018-10-17T21:39:13.927Z,70.93
2018-10-17T21:41:42.609Z,70.92
2018-10-17T21:44:11.688Z,71.98
2018-10-17T21:46:40.475Z,71.85
2018-10-17T21:49:09.692Z,71.97
2018-10-17T21:58:38.499Z,71.49
2018-10-17T22:01:06.849Z,71.93
2018-10-17T22:03:35.191Z,71.98
2018-10-17T22:06:03.533Z,72.83
2018-10-17T22:08:31.868Z,73.41
2018-10-17T22:11:00.191Z,73.97
2018-10-17T22:13:28.494Z,73.84
2018-10-17T22:15:56.846Z,74.07
2018-10-17T22:18:25.193Z,73.02
2018-10-17T22:20:54.117Z,74.30
2018-10-17T22:23:22.449Z,74.24
2018-10-17T22:25:50.776Z,74.51
2018-10-17T22:28:19.138Z,73.71
2018-10-17T22:30:47.465Z,73.29
2018-10-17T22:33:15.808Z,73.93
2018-10-17T22:35:44.122Z,73.64
2018-10-17T22:38:12.522Z,73.31
2018-10-17T22:40:40.826Z,73.70
2018-10-17T22:43:09.189Z,73.53
2018-10-17T22:45:37.705Z,73.99
2018-10-17T22:48:06.115Z,74.17
2018-10-17T22:50:34.457Z,73.85
2018-10-17T22:53:02.787Z,75.29
2018-10-17T22:55:31.120Z,74.72
2018-10-17T22:57:59.447Z,74.69
2018-10-17T23:00:27.792Z,74.09
2018-10-17T23:02:56.120Z,75.24
2018-10-17T23:05:24.469Z,74.71
2018-10-17T23:07:52.801Z,73.63
2018-10-17T23:10:21.116Z,73.78
2018-10-17T23:12:49.464Z,73.73
2018-10-17T23:15:17.790Z,73.60
2018-10-17T23:17:46.116Z,74.47
2018-10-17T23:20:14.554Z,73.38
2018-10-17T23:22:42.813Z,73.60
2018-10-17T23:25:12.014Z,73.92
2018-10-17T23:27:40.909Z,74.02
2018-10-17T23:30:10.293Z,74.43
2018-10-17T23:32:39.596Z,73.92
2018-10-17T23:35:07.922Z,74.05
2018-10-17T23:37:36.561Z,74.09
2018-10-17T23:40:05.524Z,73.86
2018-10-17T23:42:33.921Z,74.18
2018-10-17T23:45:02.219Z,74.56
2018-10-17T23:47:30.691Z,74.39
2018-10-17T23:49:59.080Z,73.98
2018-10-17T23:52:27.393Z,74.36
2018-10-17T23:54:55.728Z,74.68
2018-10-17T23:57:24.080Z,74.51
2018-10-17T23:59:52.449Z,74.31
